createdAt,value
2023-03-06T00:01:17.656Z,4.20
2023-03-06T00:03:45.631Z,4.10
2023-03-06T00:06:13.604Z,4.00
2023-03-06T00:08:41.522Z,4.00
2023-03-06T00:11:09.402Z,3.90
2023-03-06T00:13:37.287Z,3.90
2023-03-06T00:16:07.625Z,3.90
2023-03-06T00:18:35.761Z,3.90
2023-03-06T00:21:07.532Z,3.80
2023-03-06T00:23:36.306Z,3.80
2023-03-06T00:26:04.206Z,3.70
2023-03-06T00:28:32.630Z,3.80
2023-03-06T00:31:01.318Z,3.70
2023-03-06T00:33:30.757Z,3.70
2023-03-06T00:35:58.822Z,3.70
2023-03-06T00:38:28.579Z,3.70
2023-03-06T00:40:56.441Z,3.70
2023-03-06T00:43:24.316Z,3.70
2023-03-06T00:45:52.335Z,3.70
2023-03-06T00:48:20.373Z,3.80
2023-03-06T00:50:49.601Z,3.80
2023-03-06T00:53:17.494Z,3.70
2023-03-06T00:55:45.711Z,3.70
2023-03-06T00:58:13.709Z,3.70
2023-03-06T01:00:41.604Z,3.70
2023-03-06T01:03:09.503Z,3.70
2023-03-06T01:05:39.079Z,3.70
2023-03-06T01:08:09.372Z,3.70
2023-03-06T01:10:40.611Z,3.70
2023-03-06T01:13:08.639Z,3.70
2023-03-06T01:15:36.572Z,3.60
2023-03-06T01:18:04.646Z,3.60
2023-03-06T01:20:32.735Z,3.60
2023-03-06T01:23:01.081Z,3.60
2023-03-06T01:25:30.475Z,3.50
2023-03-06T01:27:58.431Z,3.50
2023-03-06T01:30:26.347Z,3.50
2023-03-06T01:32:54.336Z,3.40
2023-03-06T01:35:22.267Z,3.40
2023-03-06T01:37:50.252Z,3.40
2023-03-06T01:40:18.205Z,3.30
2023-03-06T01:42:49.916Z,3.30
2023-03-06T01:45:55.744Z,3.30
2023-03-06T01:48:25.301Z,3.30
2023-03-06T01:50:54.991Z,3.30
2023-03-06T01:53:23.055Z,3.30
2023-03-06T01:55:51.298Z,3.30
2023-03-06T01:58:21.136Z,3.40
2023-03-06T02:00:49.281Z,3.40
2023-03-06T02:03:21.793Z,3.40
2023-03-06T02:05:50.135Z,3.40
2023-03-06T02:08:21.726Z,3.40
2023-03-06T02:10:59.647Z,3.40
2023-03-06T02:13:29.195Z,3.40
2023-03-06T02:15:57.588Z,3.40
2023-03-06T02:18:26.044Z,3.40
2023-03-06T02:20:58.342Z,3.40
2023-03-06T02:23:31.245Z,3.30
2023-03-06T02:26:01.979Z,3.30
2023-03-06T02:28:30.115Z,3.20
2023-03-06T02:30:58.375Z,3.10
2023-03-06T02:33:28.754Z,3.10
2023-03-06T02:36:00.389Z,3.20
2023-03-06T02:38:32.567Z,3.20
2023-03-06T02:41:04.881Z,3.30
2023-03-06T02:43:35.762Z,3.20
2023-03-06T02:46:03.949Z,3.20
2023-03-06T02:48:32.007Z,3.10
2023-03-06T02:51:00.032Z,3.10
2023-03-06T02:53:28.252Z,3.10
2023-03-06T02:55:56.409Z,3.10
2023-03-06T02:58:25.918Z,3.10
2023-03-06T03:00:53.919Z,3.20
2023-03-06T03:03:22.043Z,3.20
2023-03-06T03:05:50.109Z,3.20
2023-03-06T03:08:18.274Z,3.20
2023-03-06T03:10:46.280Z,3.20
2023-03-06T03:13:14.349Z,3.20
2023-03-06T03:15:44.410Z,3.20
2023-03-06T03:18:12.919Z,3.20
2023-03-06T03:20:43.893Z,3.30
2023-03-06T03:23:11.847Z,3.30
2023-03-06T03:25:39.875Z,3.20
2023-03-06T03:28:07.886Z,3.20
2023-03-06T03:30:35.920Z,3.10
2023-03-06T03:33:05.358Z,3.10
2023-03-06T03:35:33.413Z,3.10
2023-03-06T03:38:01.348Z,3.10
2023-03-06T03:40:29.454Z,3.20
2023-03-06T03:42:57.428Z,3.20
2023-03-06T03:45:25.685Z,3.20
2023-03-06T03:47:53.761Z,3.20
2023-03-06T03:50:23.242Z,3.30
2023-03-06T03:52:51.198Z,3.30
2023-03-06T03:55:19.306Z,3.30
2023-03-06T03:57:47.419Z,3.30
2023-03-06T04:00:16.621Z,3.30
2023-03-06T04:02:45.056Z,3.30
2023-03-06T04:05:14.976Z,3.30
2023-03-06T04:07:44.821Z,3.30
2023-03-06T04:10:13.833Z,3.40
2023-03-06T04:12:41.952Z,3.30
2023-03-06T04:15:10.586Z,3.20
2023-03-06T04:17:38.537Z,3.10
2023-03-06T04:20:07.502Z,3.10
2023-03-06T04:22:35.417Z,3.10
2023-03-06T04:25:05.210Z,3.10
2023-03-06T04:27:33.452Z,3.10
2023-03-06T04:30:01.557Z,3.00
2023-03-06T04:32:29.739Z,3.00
2023-03-06T04:34:58.117Z,3.00
2023-03-06T04:37:27.665Z,3.00
2023-03-06T04:39:55.775Z,3.00
2023-03-06T04:42:25.246Z,3.00
2023-03-06T04:44:53.326Z,3.00
2023-03-06T04:47:21.564Z,3.00
2023-03-06T04:49:49.478Z,3.00
2023-03-06T04:52:17.666Z,3.00
2023-03-06T04:54:46.038Z,3.00
2023-03-06T04:57:14.289Z,3.00
2023-03-06T04:59:43.850Z,3.00
2023-03-06T05:02:11.861Z,3.00
2023-03-06T05:04:40.002Z,3.10
2023-03-06T05:07:08.068Z,3.00
2023-03-06T05:09:38.844Z,3.00
2023-03-06T05:12:07.649Z,2.90
2023-03-06T05:14:35.764Z,2.90
2023-03-06T05:17:05.234Z,2.90
2023-03-06T05:19:33.274Z,2.90
2023-03-06T05:22:01.380Z,3.00
2023-03-06T05:24:29.454Z,3.00
2023-03-06T05:26:57.607Z,3.00
2023-03-06T05:29:25.737Z,3.00
2023-03-06T05:31:53.900Z,3.00
2023-03-06T05:34:23.482Z,3.00
2023-03-06T05:36:51.599Z,3.00
2023-03-06T05:39:19.772Z,3.00
2023-03-06T05:41:47.844Z,3.00
2023-03-06T05:44:15.833Z,3.10
2023-03-06T05:46:43.912Z,3.00
2023-03-06T05:49:12.004Z,3.00
2023-03-06T05:51:41.528Z,3.20
2023-03-06T05:54:09.693Z,3.10
2023-03-06T05:56:37.782Z,3.10
2023-03-06T05:59:05.828Z,3.10
2023-03-06T06:01:34.000Z,3.10
2023-03-06T06:04:02.097Z,3.10
2023-03-06T06:06:30.104Z,3.10
2023-03-06T06:08:59.569Z,3.00
2023-03-06T06:11:27.669Z,3.00
2023-03-06T06:13:55.733Z,3.00
2023-03-06T06:16:23.688Z,2.90
2023-03-06T06:18:51.772Z,2.90
2023-03-06T06:21:19.851Z,2.90
2023-03-06T06:23:48.046Z,3.00
2023-03-06T06:26:17.475Z,2.90
2023-03-06T06:28:45.536Z,2.90
2023-03-06T06:33:56.080Z,3.00
2023-03-06T06:36:26.394Z,2.90
2023-03-06T06:39:02.441Z,3.00
2023-03-06T06:42:02.398Z,3.10
2023-03-06T06:44:42.009Z,3.10
2023-03-06T06:47:23.588Z,3.20
2023-03-06T06:49:53.733Z,3.30
2023-03-06T06:52:22.587Z,3.40
2023-03-06T06:54:50.990Z,3.50
2023-03-06T06:57:20.716Z,3.50
2023-03-06T06:59:53.428Z,3.70
2023-03-06T07:02:22.578Z,3.80
2023-03-06T07:05:03.185Z,4.00
2023-03-06T07:07:34.715Z,4.10
2023-03-06T07:10:05.062Z,4.00
2023-03-06T07:12:35.753Z,4.00
2023-03-06T07:15:08.342Z,4.10
2023-03-06T07:17:38.010Z,4.10
2023-03-06T07:20:11.289Z,4.20
2023-03-06T07:22:50.404Z,4.20
2023-03-06T07:25:20.498Z,4.20
2023-03-06T07:27:55.788Z,4.20
2023-03-06T07:30:24.959Z,4.20
2023-03-06T07:32:56.638Z,4.30
2023-03-06T07:35:26.038Z,4.30
2023-03-06T07:37:57.008Z,4.40
2023-03-06T07:40:26.219Z,4.50
2023-03-06T07:43:09.152Z,4.60
2023-03-06T07:45:46.979Z,4.70
2023-03-06T07:48:15.732Z,4.70
2023-03-06T07:50:44.184Z,4.80
2023-03-06T07:53:12.241Z,4.70
2023-03-06T07:55:42.492Z,4.70
2023-03-06T07:58:12.030Z,4.80
2023-03-06T08:00:40.091Z,4.90
2023-03-06T08:03:17.546Z,4.90
2023-03-06T08:05:46.144Z,5.00
2023-03-06T08:08:14.597Z,5.00
2023-03-06T08:10:50.056Z,5.00
2023-03-06T08:13:19.992Z,5.10
2023-03-06T08:15:50.243Z,5.20
2023-03-06T08:18:18.375Z,5.30
2023-03-06T08:20:46.655Z,5.40
2023-03-06T08:23:15.048Z,5.50
2023-03-06T08:25:43.595Z,5.60
2023-03-06T08:28:11.817Z,5.70
2023-03-06T08:30:47.109Z,5.80
2023-03-06T08:33:15.262Z,5.90
2023-03-06T08:35:47.983Z,6.00
2023-03-06T08:38:16.601Z,6.00
2023-03-06T08:40:47.331Z,6.10
2023-03-06T08:43:15.772Z,6.10
2023-03-06T08:45:45.492Z,6.20
2023-03-06T08:48:13.833Z,6.20
2023-03-06T08:50:44.549Z,6.20
2023-03-06T08:53:15.799Z,6.10
2023-03-06T08:55:44.366Z,6.20
2023-03-06T08:58:12.841Z,6.30
2023-03-06T09:00:41.594Z,6.30
2023-03-06T09:03:11.702Z,6.40
2023-03-06T09:05:41.926Z,6.50
2023-03-06T09:08:18.231Z,6.70
2023-03-06T09:10:48.046Z,6.80
2023-03-06T09:13:16.452Z,7.00
2023-03-06T09:15:44.565Z,7.30
2023-03-06T09:18:15.034Z,7.40
2023-03-06T09:20:55.143Z,7.50
2023-03-06T09:23:24.340Z,7.60
2023-03-06T09:25:59.547Z,7.70
2023-03-06T09:28:28.359Z,7.60
2023-03-06T09:30:56.964Z,7.70
2023-03-06T09:33:39.379Z,7.70
2023-03-06T09:36:09.506Z,7.80
2023-03-06T09:38:37.963Z,7.90
2023-03-06T09:41:19.768Z,7.60
2023-03-06T09:43:51.554Z,7.70
2023-03-06T09:46:24.767Z,7.90
2023-03-06T09:49:21.512Z,8.10
2023-03-06T09:52:07.361Z,8.20
2023-03-06T09:54:48.020Z,8.30
2023-03-06T09:57:25.286Z,8.40
2023-03-06T09:59:56.360Z,8.50
2023-03-06T10:02:37.014Z,8.60
2023-03-06T10:05:11.885Z,8.50
2023-03-06T10:07:47.681Z,8.10
2023-03-06T10:10:37.431Z,7.80
2023-03-06T10:13:14.309Z,7.70
2023-03-06T10:15:47.666Z,7.50
2023-03-06T10:18:16.366Z,7.40
2023-03-06T10:20:51.076Z,7.40
2023-03-06T10:23:35.204Z,7.30
2023-03-06T10:26:08.374Z,7.20
2023-03-06T10:28:40.683Z,7.10
2023-03-06T10:31:16.805Z,7.20
2023-03-06T10:33:54.220Z,7.40
2023-03-06T10:36:27.647Z,7.70
2023-03-06T10:38:58.137Z,7.90
2023-03-06T10:41:28.930Z,8.10
2023-03-06T10:44:27.061Z,8.30
2023-03-06T10:46:56.554Z,8.30
2023-03-06T10:49:36.325Z,8.40
2023-03-06T10:52:08.265Z,8.70
2023-03-06T10:54:38.805Z,8.70
2023-03-06T10:57:22.290Z,8.70
2023-03-06T10:59:55.836Z,8.80
2023-03-06T11:02:30.794Z,8.80
2023-03-06T11:05:01.641Z,8.80
2023-03-06T11:07:32.738Z,8.70
2023-03-06T11:10:07.982Z,8.50
2023-03-06T11:12:37.701Z,8.30
2023-03-06T11:15:21.205Z,8.40
2023-03-06T11:17:55.769Z,8.40
2023-03-06T11:20:26.561Z,8.50
2023-03-06T11:23:00.717Z,8.40
2023-03-06T11:25:34.593Z,8.40
2023-03-06T11:28:08.856Z,8.10
2023-03-06T11:30:46.519Z,8.10
2023-03-06T11:33:26.569Z,8.10
2023-03-06T11:35:59.524Z,8.20
2023-03-06T11:38:39.956Z,8.20
2023-03-06T11:41:19.190Z,8.10
2023-03-06T11:43:55.318Z,8.10
2023-03-06T11:46:29.264Z,8.10
2023-03-06T11:49:04.202Z,8.00
2023-03-06T11:51:36.886Z,8.00
2023-03-06T11:54:06.946Z,8.00
2023-03-06T11:56:44.124Z,7.80
2023-03-06T11:59:44.830Z,7.80
2023-03-06T12:02:26.443Z,7.80
2023-03-06T12:05:02.491Z,7.80
2023-03-06T12:07:53.373Z,7.90
2023-03-06T12:10:28.086Z,7.80
2023-03-06T12:13:10.808Z,7.90
2023-03-06T12:15:55.158Z,8.00
2023-03-06T12:18:36.376Z,8.20
2023-03-06T12:21:08.898Z,8.40
2023-03-06T12:23:58.838Z,8.60
2023-03-06T12:26:42.388Z,8.80
2023-03-06T12:29:25.231Z,8.80
2023-03-06T12:32:17.068Z,8.60
2023-03-06T12:35:05.545Z,8.50
2023-03-06T12:37:49.236Z,8.70
2023-03-06T12:40:37.219Z,8.70
2023-03-06T12:43:35.129Z,8.70
2023-03-06T12:46:10.641Z,8.70
2023-03-06T12:48:40.728Z,8.70
2023-03-06T12:51:23.050Z,8.80
2023-03-06T12:53:52.214Z,8.80
2023-03-06T12:56:21.869Z,9.00
2023-03-06T12:58:55.119Z,9.00
2023-03-06T13:02:01.872Z,9.00
2023-03-06T13:04:51.339Z,8.90
2023-03-06T13:07:31.277Z,8.90
2023-03-06T13:10:12.114Z,8.80
2023-03-06T13:12:55.689Z,8.60
2023-03-06T13:15:38.860Z,8.60
2023-03-06T13:18:55.818Z,8.60
2023-03-06T13:22:09.870Z,8.50
2023-03-06T13:24:38.669Z,8.20
2023-03-06T13:27:12.034Z,8.10
2023-03-06T13:30:22.073Z,8.00
2023-03-06T13:32:53.727Z,8.20
2023-03-06T13:35:52.507Z,8.30
2023-03-06T13:38:35.266Z,8.40
2023-03-06T13:41:35.496Z,8.40
2023-03-06T13:44:09.052Z,8.40
2023-03-06T13:46:39.037Z,8.50
2023-03-06T13:49:17.932Z,8.50
2023-03-06T13:52:06.520Z,8.60
2023-03-06T13:54:48.339Z,8.60
2023-03-06T13:57:42.105Z,8.70
2023-03-06T14:00:27.691Z,8.60
2023-03-06T14:03:27.962Z,8.70
2023-03-06T14:05:58.919Z,8.90
2023-03-06T14:08:29.679Z,8.70
2023-03-06T14:11:03.770Z,8.50
2023-03-06T14:13:46.699Z,8.40
2023-03-06T14:16:21.599Z,8.10
2023-03-06T14:18:51.694Z,8.20
2023-03-06T14:21:31.013Z,8.20
2023-03-06T14:24:01.002Z,8.10
2023-03-06T14:26:33.389Z,8.10
2023-03-06T14:29:03.417Z,8.00
2023-03-06T14:31:34.243Z,8.00
2023-03-06T14:34:05.009Z,8.00
2023-03-06T14:36:41.330Z,7.90
2023-03-06T14:39:14.746Z,7.60
2023-03-06T14:41:43.054Z,7.40
2023-03-06T14:44:18.006Z,7.20
2023-03-06T14:46:46.835Z,7.00
2023-03-06T14:49:15.612Z,6.90
2023-03-06T14:51:47.744Z,6.90
2023-03-06T14:54:19.593Z,7.00
2023-03-06T14:56:50.129Z,7.00
2023-03-06T14:59:25.136Z,7.10
2023-03-06T15:01:58.081Z,7.30
2023-03-06T15:04:30.342Z,7.40
2023-03-06T15:07:00.391Z,7.60
2023-03-06T15:09:31.402Z,7.70
2023-03-06T15:12:01.394Z,7.70
2023-03-06T15:14:35.795Z,7.70
2023-03-06T15:17:29.049Z,7.70
2023-03-06T15:19:58.473Z,7.70
2023-03-06T15:22:31.568Z,7.70
2023-03-06T15:25:26.661Z,7.80
2023-03-06T15:27:56.881Z,7.70
2023-03-06T15:30:29.571Z,7.70
2023-03-06T15:33:23.163Z,7.50
2023-03-06T15:35:57.141Z,7.40
2023-03-06T15:38:33.127Z,7.30
2023-03-06T15:41:02.373Z,7.10
2023-03-06T15:43:35.305Z,7.00
2023-03-06T15:46:05.864Z,7.00
2023-03-06T15:48:35.405Z,6.70
2023-03-06T15:51:07.118Z,6.70
2023-03-06T15:53:36.679Z,6.50
2023-03-06T15:56:04.743Z,6.50
2023-03-06T15:58:35.191Z,6.50
2023-03-06T16:01:03.855Z,6.40
2023-03-06T16:03:32.276Z,6.50
2023-03-06T16:06:00.310Z,6.40
2023-03-06T16:08:28.846Z,6.40
2023-03-06T16:10:59.003Z,6.40
2023-03-06T16:13:29.091Z,6.40
2023-03-06T16:15:57.670Z,6.30
2023-03-06T16:18:25.751Z,6.10
2023-03-06T16:20:53.673Z,6.10
2023-03-06T16:23:21.737Z,5.90
2023-03-06T16:25:50.545Z,5.90
2023-03-06T16:28:19.865Z,5.80
2023-03-06T16:30:47.899Z,5.80
2023-03-06T16:33:16.223Z,5.70
2023-03-06T16:35:46.629Z,5.80
2023-03-06T16:38:15.937Z,5.80
2023-03-06T16:40:44.258Z,5.80
2023-03-06T16:43:13.456Z,5.70
2023-03-06T16:45:44.444Z,5.60
2023-03-06T16:48:17.057Z,5.80
2023-03-06T16:50:45.604Z,5.60
2023-03-06T16:53:13.913Z,5.60
2023-03-06T16:55:41.900Z,5.60
2023-03-06T16:58:10.002Z,5.50
2023-03-06T17:00:38.450Z,5.50
2023-03-06T17:03:07.937Z,5.50
2023-03-06T17:05:39.404Z,5.50
2023-03-06T17:08:07.574Z,5.40
2023-03-06T17:10:35.771Z,5.40
2023-03-06T17:13:05.106Z,5.30
2023-03-06T17:15:33.056Z,5.40
2023-03-06T17:18:01.164Z,5.40
2023-03-06T17:20:30.440Z,5.50
2023-03-06T17:22:58.414Z,5.30
2023-03-06T17:25:26.372Z,5.30
2023-03-06T17:27:54.346Z,5.20
2023-03-06T17:30:22.320Z,5.20
2023-03-06T17:32:50.256Z,5.20
2023-03-06T17:35:18.293Z,5.20
2023-03-06T17:37:47.867Z,5.20
2023-03-06T17:40:16.609Z,5.20
2023-03-06T17:42:44.644Z,5.20
2023-03-06T17:45:13.818Z,5.30
2023-03-06T17:47:42.043Z,5.30
2023-03-06T17:50:11.717Z,5.30
2023-03-06T17:52:39.960Z,5.30
2023-03-06T17:55:10.535Z,5.30
2023-03-06T17:57:38.611Z,5.20
2023-03-06T18:00:08.124Z,5.20
2023-03-06T18:02:36.437Z,5.20
2023-03-06T18:05:04.957Z,5.20
2023-03-06T18:07:32.951Z,5.20
2023-03-06T18:10:00.908Z,5.30
2023-03-06T18:12:30.169Z,5.30
2023-03-06T18:14:58.225Z,5.30
2023-03-06T18:17:26.329Z,5.30
2023-03-06T18:19:56.827Z,5.30
2023-03-06T18:22:24.952Z,5.30
2023-03-06T18:24:53.020Z,5.30
2023-03-06T18:27:21.879Z,5.40
2023-03-06T18:29:52.251Z,5.40
2023-03-06T18:32:20.395Z,5.30
2023-03-06T18:34:50.571Z,5.40
2023-03-06T18:37:18.922Z,5.30
2023-03-06T18:39:46.904Z,5.30
2023-03-06T18:42:15.034Z,5.30
2023-03-06T18:44:44.082Z,5.30
2023-03-06T18:47:13.482Z,5.30
2023-03-06T18:49:44.011Z,5.30
2023-03-06T18:52:12.874Z,5.30
2023-03-06T18:54:40.934Z,5.30
2023-03-06T18:57:11.397Z,5.30
2023-03-06T18:59:39.547Z,5.30
2023-03-06T19:02:07.888Z,5.30
2023-03-06T19:04:38.095Z,5.30
2023-03-06T19:07:06.379Z,5.30
2023-03-06T19:09:34.736Z,5.20
2023-03-06T19:12:03.965Z,5.30
2023-03-06T19:14:32.039Z,5.30
2023-03-06T19:17:00.030Z,5.30
2023-03-06T19:19:29.345Z,5.30
2023-03-06T19:22:02.097Z,5.30
2023-03-06T19:24:31.076Z,5.30
2023-03-06T19:26:59.387Z,5.30
2023-03-06T19:29:28.485Z,5.20
2023-03-06T19:31:57.293Z,5.20
2023-03-06T19:34:25.528Z,5.20
2023-03-06T19:36:53.550Z,5.10
2023-03-06T19:39:24.320Z,5.10
2023-03-06T19:42:04.852Z,5.10
2023-03-06T19:44:32.865Z,5.00
2023-03-06T19:47:01.105Z,5.00
2023-03-06T19:49:31.750Z,4.90
2023-03-06T19:51:59.804Z,4.90
2023-03-06T19:54:31.441Z,4.90
2023-03-06T19:57:00.406Z,4.80
2023-03-06T19:59:28.399Z,4.80
2023-03-06T20:01:56.415Z,4.80
2023-03-06T20:04:24.636Z,4.80
2023-03-06T20:06:53.328Z,4.80
2023-03-06T20:09:22.021Z,4.70
2023-03-06T20:11:51.404Z,4.70
2023-03-06T20:14:20.063Z,4.70
2023-03-06T20:16:48.242Z,4.70
2023-03-06T20:19:17.431Z,4.70
2023-03-06T20:21:51.695Z,4.70
2023-03-06T20:24:19.871Z,4.70
2023-03-06T20:26:49.058Z,4.70
2023-03-06T20:29:21.274Z,4.70
2023-03-06T20:31:49.238Z,4.70
2023-03-06T20:34:17.274Z,4.70
2023-03-06T20:36:45.438Z,4.70
2023-03-06T20:39:15.770Z,4.70
2023-03-06T20:41:44.941Z,4.80
2023-03-06T20:44:15.746Z,4.70
2023-03-06T20:46:45.944Z,4.70
2023-03-06T20:49:14.589Z,4.70
2023-03-06T20:51:42.948Z,4.70
2023-03-06T20:54:12.833Z,4.70
2023-03-06T20:56:42.375Z,4.70
2023-03-06T20:59:12.761Z,4.70
2023-03-06T21:01:42.276Z,4.80
2023-03-06T21:04:13.859Z,4.70
2023-03-06T21:06:46.350Z,4.60
2023-03-06T21:09:16.667Z,4.60
2023-03-06T21:11:45.248Z,4.70
2023-03-06T21:14:14.347Z,4.70
2023-03-06T21:16:42.941Z,4.70
2023-03-06T21:19:12.424Z,4.60
2023-03-06T21:21:40.492Z,4.60
2023-03-06T21:24:09.069Z,4.60
2023-03-06T21:26:37.183Z,4.50
2023-03-06T21:29:06.024Z,4.50
2023-03-06T21:31:34.536Z,4.50
2023-03-06T21:34:04.987Z,4.50
2023-03-06T21:36:35.363Z,4.50
2023-03-06T21:39:06.209Z,4.50
2023-03-06T21:41:34.834Z,4.50
2023-03-06T21:44:04.961Z,4.50
2023-03-06T21:46:33.579Z,4.50
2023-03-06T21:49:03.296Z,4.50
2023-03-06T21:51:31.396Z,4.50
2023-03-06T21:54:02.091Z,4.50
2023-03-06T21:56:30.186Z,4.40
2023-03-06T21:58:58.351Z,4.40
2023-03-06T22:01:28.387Z,4.40
2023-03-06T22:03:57.041Z,4.50
2023-03-06T22:06:27.166Z,4.30
2023-03-06T22:08:57.132Z,4.40
2023-03-06T22:11:28.225Z,4.40
2023-03-06T22:13:56.233Z,4.40
2023-03-06T22:16:24.509Z,4.30
2023-03-06T22:18:53.106Z,4.30
2023-03-06T22:21:22.951Z,4.40
2023-03-06T22:23:51.160Z,4.30
2023-03-06T22:26:19.766Z,4.30
2023-03-06T22:28:49.403Z,4.30
2023-03-06T22:31:20.400Z,4.20
2023-03-06T22:33:51.380Z,4.30
2023-03-06T22:36:20.926Z,4.30
2023-03-06T22:38:49.763Z,4.30
2023-03-06T22:41:21.810Z,4.30
2023-03-06T22:43:51.241Z,4.20
2023-03-06T22:46:19.822Z,4.20
2023-03-06T22:48:47.879Z,4.20
2023-03-06T22:51:17.941Z,4.20
2023-03-06T22:53:46.170Z,4.20
2023-03-06T22:56:17.064Z,4.20
2023-03-06T22:58:45.643Z,4.20
2023-03-06T23:01:17.359Z,4.30
2023-03-06T23:03:46.964Z,4.20
2023-03-06T23:06:16.750Z,4.30
2023-03-06T23:08:45.763Z,4.20
2023-03-06T23:11:16.446Z,4.30
2023-03-06T23:13:44.806Z,4.20
2023-03-06T23:16:14.718Z,4.20
2023-03-06T23:18:43.015Z,4.20
2023-03-06T23:21:13.193Z,4.20
2023-03-06T23:23:41.821Z,4.20
2023-03-06T23:26:11.946Z,4.20
2023-03-06T23:28:40.398Z,4.30
2023-03-06T23:31:09.477Z,4.30
2023-03-06T23:33:39.782Z,4.20
2023-03-06T23:36:10.155Z,4.20
2023-03-06T23:38:38.699Z,4.20
2023-03-06T23:41:08.566Z,4.20
2023-03-06T23:43:36.881Z,4.20
2023-03-06T23:46:06.138Z,4.20
2023-03-06T23:48:35.489Z,4.10
2023-03-06T23:51:08.310Z,4.10
2023-03-06T23:53:36.598Z,4.10
2023-03-06T23:56:06.528Z,4.10
2023-03-06T23:58:34.814Z,4.10
